createdAt,value
2019-02-07T00:01:47.515Z,10.82
2019-02-07T00:04:16.903Z,11.60
2019-02-07T00:06:46.419Z,10.32
2019-02-07T00:09:16.079Z,11.08
2019-02-07T00:11:45.849Z,11.80
2019-02-07T00:14:15.504Z,10.50
2019-02-07T00:16:45.341Z,12.10
2019-02-07T00:19:14.980Z,10.15
2019-02-07T00:21:44.681Z,16.60
2019-02-07T00:24:14.181Z,13.98
2019-02-07T00:26:44.281Z,11.53
2019-02-07T00:29:13.635Z,10.23
2019-02-07T00:31:43.291Z,11.40
2019-02-07T00:34:13.146Z,10.90
2019-02-07T00:36:42.770Z,12.55
2019-02-07T00:39:12.308Z,11.80
2019-02-07T00:41:41.678Z,12.93
2019-02-07T00:44:11.143Z,11.83
2019-02-07T00:46:40.581Z,12.23
2019-02-07T00:49:09.915Z,11.70
2019-02-07T00:51:39.185Z,12.63
2019-02-07T00:54:08.895Z,12.75
2019-02-07T00:56:39.851Z,12.53
2019-02-07T00:59:09.758Z,13.60
2019-02-07T01:01:39.312Z,11.85
2019-02-07T01:04:09.026Z,14.07
2019-02-07T01:06:38.409Z,16.60
2019-02-07T01:09:10.004Z,13.85
2019-02-07T01:11:39.554Z,12.20
2019-02-07T01:14:09.005Z,18.07
2019-02-07T01:16:38.507Z,14.73
2019-02-07T01:19:08.525Z,13.85
2019-02-07T01:21:37.887Z,12.80
2019-02-07T01:24:08.020Z,13.83
2019-02-07T01:26:37.263Z,12.82
2019-02-07T01:29:06.617Z,13.32
2019-02-07T01:31:35.948Z,11.90
2019-02-07T01:34:05.357Z,18.48
2019-02-07T01:36:34.986Z,14.78
2019-02-07T01:39:07.691Z,12.63
2019-02-07T01:41:37.106Z,13.62
2019-02-07T01:44:06.477Z,14.70
2019-02-07T01:46:36.047Z,13.20
2019-02-07T01:49:05.639Z,13.00
2019-02-07T01:51:35.134Z,13.48
2019-02-07T01:54:05.031Z,13.83
2019-02-07T01:56:34.410Z,13.43
2019-02-07T01:59:03.742Z,13.58
2019-02-07T02:01:33.566Z,12.63
2019-02-07T02:04:02.886Z,12.15
2019-02-07T02:06:32.757Z,11.55
2019-02-07T02:09:02.014Z,12.05
2019-02-07T02:11:31.631Z,12.43
2019-02-07T02:14:00.986Z,14.87
2019-02-07T02:16:30.709Z,15.08
2019-02-07T02:19:00.134Z,12.95
2019-02-07T02:21:29.579Z,12.85
2019-02-07T02:23:58.996Z,9.75
2019-02-07T02:26:29.512Z,15.53
2019-02-07T02:28:59.070Z,13.58
2019-02-07T02:31:28.566Z,10.55
2019-02-07T02:33:58.235Z,11.30
2019-02-07T02:36:28.210Z,11.35
2019-02-07T02:38:57.634Z,14.15
2019-02-07T02:41:26.884Z,14.00
2019-02-07T02:43:56.866Z,14.03
2019-02-07T02:46:27.565Z,11.65
2019-02-07T02:48:57.352Z,10.88
2019-02-07T02:51:27.219Z,10.80
2019-02-07T02:53:59.121Z,11.73
2019-02-07T02:56:29.338Z,11.48
2019-02-07T02:58:58.604Z,11.65
2019-02-07T03:01:52.851Z,11.75
2019-02-07T03:04:31.940Z,10.65
2019-02-07T03:07:19.057Z,11.03
2019-02-07T03:10:07.059Z,14.58
2019-02-07T03:13:01.606Z,13.18
2019-02-07T03:15:53.482Z,12.07
2019-02-07T03:18:40.620Z,11.93
2019-02-07T03:21:27.779Z,11.28
2019-02-07T03:24:31.241Z,12.35
2019-02-07T03:27:31.975Z,11.68
2019-02-07T03:30:23.483Z,17.07
2019-02-07T03:33:17.919Z,10.88
2019-02-07T03:35:58.549Z,10.60
2019-02-07T03:38:43.238Z,11.83
2019-02-07T03:41:32.930Z,10.05
2019-02-07T03:44:21.540Z,13.22
2019-02-07T03:47:25.230Z,10.18
2019-02-07T03:50:23.002Z,13.72
2019-02-07T03:53:10.095Z,13.78
2019-02-07T03:56:04.649Z,13.10
2019-02-07T03:58:51.786Z,14.85
2019-02-07T04:01:38.724Z,10.40
2019-02-07T04:04:26.064Z,12.93
2019-02-07T04:07:11.006Z,14.05
2019-02-07T04:09:59.296Z,12.58
2019-02-07T04:12:53.529Z,14.07
2019-02-07T04:15:45.190Z,13.28
2019-02-07T04:18:32.362Z,12.35
2019-02-07T04:21:19.494Z,14.90
2019-02-07T04:23:59.943Z,12.50
2019-02-07T04:26:52.390Z,13.60
2019-02-07T04:29:46.987Z,10.72
2019-02-07T04:32:48.026Z,11.65
2019-02-07T04:35:36.980Z,12.10
2019-02-07T04:38:24.816Z,12.50
2019-02-07T04:41:18.349Z,12.30
2019-02-07T04:44:02.028Z,16.23
2019-02-07T04:46:49.326Z,13.40
2019-02-07T04:49:35.942Z,12.23
2019-02-07T04:52:27.488Z,12.85
2019-02-07T04:55:26.251Z,13.30
2019-02-07T04:58:13.249Z,12.82
2019-02-07T05:01:20.384Z,14.03
2019-02-07T05:04:05.055Z,11.38
2019-02-07T05:06:53.326Z,12.68
2019-02-07T05:09:56.777Z,13.45
2019-02-07T05:13:03.278Z,13.98
2019-02-07T05:15:52.588Z,17.37
2019-02-07T05:18:41.359Z,18.37
2019-02-07T05:21:29.907Z,18.42
2019-02-07T05:24:08.315Z,20.23
2019-02-07T05:26:46.185Z,18.40
2019-02-07T05:29:34.628Z,15.75
2019-02-07T05:32:21.968Z,18.12
2019-02-07T05:35:08.290Z,15.90
2019-02-07T05:38:02.634Z,17.85
2019-02-07T05:40:47.818Z,17.92
2019-02-07T05:43:35.545Z,20.40
2019-02-07T05:46:12.762Z,15.83
2019-02-07T05:49:01.021Z,22.17
2019-02-07T05:51:53.586Z,19.98
2019-02-07T05:54:54.942Z,17.57
2019-02-07T05:57:53.059Z,20.82
2019-02-07T06:00:44.401Z,25.85
2019-02-07T06:03:48.121Z,32.13
2019-02-07T06:06:42.231Z,30.20
2019-02-07T06:09:29.426Z,25.72
2019-02-07T06:12:27.944Z,26.97
2019-02-07T06:15:19.376Z,21.40
2019-02-07T06:18:01.971Z,21.12
2019-02-07T06:20:56.344Z,20.20
2019-02-07T06:23:47.826Z,18.30
2019-02-07T06:26:39.247Z,19.42
2019-02-07T06:29:18.577Z,16.65
2019-02-07T06:32:03.466Z,16.73
2019-02-07T06:34:50.804Z,13.83
2019-02-07T06:37:57.458Z,17.23
2019-02-07T06:40:44.482Z,17.35
2019-02-07T06:43:32.857Z,15.03
2019-02-07T06:46:21.527Z,19.20
2019-02-07T06:49:19.302Z,26.05
2019-02-07T06:52:10.449Z,21.15
2019-02-07T06:54:58.930Z,19.85
2019-02-07T06:57:56.503Z,27.50
2019-02-07T07:01:03.526Z,19.90
2019-02-07T07:04:09.949Z,19.45
2019-02-07T07:06:58.361Z,19.80
2019-02-07T07:09:53.046Z,23.50
2019-02-07T07:12:41.496Z,24.02
2019-02-07T07:15:29.298Z,28.83
2019-02-07T07:18:12.089Z,24.55
2019-02-07T07:21:07.278Z,21.65
2019-02-07T07:23:54.730Z,19.98
2019-02-07T07:26:46.224Z,22.50
2019-02-07T07:29:26.210Z,18.37
2019-02-07T07:32:17.448Z,18.15
2019-02-07T07:35:24.250Z,20.65
2019-02-07T07:38:16.318Z,18.17
2019-02-07T07:41:03.847Z,19.90
2019-02-07T07:43:46.327Z,16.42
2019-02-07T07:46:39.775Z,17.80
2019-02-07T07:49:43.713Z,19.07
2019-02-07T07:52:38.251Z,16.77
2019-02-07T07:55:35.817Z,16.67
2019-02-07T07:58:21.829Z,18.62
2019-02-07T08:01:22.128Z,17.17
2019-02-07T08:04:05.907Z,18.70
2019-02-07T08:06:54.221Z,17.37
2019-02-07T08:09:43.558Z,16.97
2019-02-07T08:12:44.385Z,20.40
2019-02-07T08:15:33.114Z,19.35
2019-02-07T08:18:27.757Z,18.67
2019-02-07T08:21:22.144Z,20.08
2019-02-07T08:24:01.605Z,21.68
2019-02-07T08:27:05.648Z,23.10
2019-02-07T08:30:06.097Z,27.90
2019-02-07T08:32:46.045Z,29.70
2019-02-07T08:35:34.461Z,27.45
2019-02-07T08:38:26.302Z,30.10
2019-02-07T08:41:13.305Z,33.02
2019-02-07T08:44:00.765Z,29.23
2019-02-07T08:46:48.126Z,24.85
2019-02-07T08:49:36.079Z,22.10
2019-02-07T08:52:31.218Z,24.80
2019-02-07T08:55:28.557Z,24.52
2019-02-07T08:58:22.704Z,22.52
2019-02-07T09:01:14.305Z,23.10
2019-02-07T09:04:01.202Z,19.37
2019-02-07T09:06:51.146Z,22.42
2019-02-07T09:09:50.350Z,26.60
2019-02-07T09:12:47.837Z,23.45
2019-02-07T09:15:54.811Z,18.80
2019-02-07T09:18:52.267Z,20.90
2019-02-07T09:21:49.907Z,23.57
2019-02-07T09:24:37.227Z,22.93
2019-02-07T09:27:18.499Z,25.03
2019-02-07T09:30:10.035Z,27.90
2019-02-07T09:33:16.743Z,25.30
2019-02-07T09:36:10.970Z,22.93
2019-02-07T09:38:58.060Z,22.27
2019-02-07T09:41:52.584Z,22.23
2019-02-07T09:44:45.617Z,27.47
2019-02-07T09:47:31.768Z,21.37
2019-02-07T09:50:24.415Z,24.67
2019-02-07T09:53:28.230Z,25.20
2019-02-07T09:56:15.435Z,28.50
2019-02-07T09:59:09.357Z,24.53
2019-02-07T10:02:01.209Z,20.93
2019-02-07T10:05:05.131Z,22.40
2019-02-07T10:07:53.272Z,22.53
2019-02-07T10:10:44.525Z,21.17
2019-02-07T10:13:34.179Z,21.67
2019-02-07T10:16:21.599Z,27.63
2019-02-07T10:19:13.170Z,26.33
2019-02-07T10:22:04.618Z,27.47
2019-02-07T10:25:11.606Z,35.23
2019-02-07T10:28:05.875Z,47.63
2019-02-07T10:30:59.156Z,45.37
2019-02-07T10:33:46.515Z,35.07
2019-02-07T10:36:34.287Z,28.37
2019-02-07T10:39:33.477Z,26.00
2019-02-07T10:42:20.463Z,24.67
2019-02-07T10:45:02.892Z,26.20
2019-02-07T10:47:57.050Z,24.97
2019-02-07T10:50:45.648Z,22.30
2019-02-07T10:53:34.038Z,21.40
2019-02-07T10:56:40.651Z,23.20
2019-02-07T10:59:31.701Z,23.00
2019-02-07T11:02:35.919Z,22.83
2019-02-07T11:05:19.323Z,26.23
2019-02-07T11:08:26.267Z,24.70
2019-02-07T11:11:14.839Z,20.90
2019-02-07T11:13:54.681Z,21.83
2019-02-07T11:16:50.182Z,22.77
2019-02-07T11:19:37.445Z,26.57
2019-02-07T11:22:25.620Z,22.70
2019-02-07T11:25:28.451Z,22.80
2019-02-07T11:28:14.303Z,23.27
2019-02-07T11:31:02.862Z,25.33
2019-02-07T11:34:06.722Z,14.90
2019-02-07T11:36:54.587Z,17.50
2019-02-07T11:39:42.048Z,24.67
2019-02-07T11:42:42.271Z,19.73
2019-02-07T11:45:20.642Z,9.53
2019-02-07T11:48:12.175Z,11.60
2019-02-07T11:50:59.335Z,10.53
2019-02-07T11:53:46.596Z,12.20
2019-02-07T11:56:34.121Z,9.90
2019-02-07T11:59:15.115Z,11.90
2019-02-07T12:02:09.076Z,11.97
2019-02-07T12:04:42.494Z,12.40
2019-02-07T12:07:36.842Z,10.97
2019-02-07T12:10:31.615Z,12.53
2019-02-07T12:13:20.084Z,11.70
2019-02-07T12:16:07.386Z,13.20
2019-02-07T12:19:17.479Z,10.33
2019-02-07T12:21:58.171Z,10.30
2019-02-07T12:24:49.470Z,9.77
2019-02-07T12:27:45.914Z,11.03
2019-02-07T12:30:34.339Z,10.40
2019-02-07T12:33:21.814Z,13.83
2019-02-07T12:35:59.378Z,13.10
2019-02-07T12:38:42.434Z,11.90
2019-02-07T12:41:31.116Z,12.97
2019-02-07T12:44:28.445Z,11.07
2019-02-07T12:47:17.224Z,12.27
2019-02-07T12:50:11.567Z,12.43
2019-02-07T12:53:00.342Z,16.37
2019-02-07T12:55:58.272Z,12.80
2019-02-07T12:58:45.639Z,16.80
2019-02-07T13:01:25.961Z,16.23
2019-02-07T13:04:14.273Z,9.17
2019-02-07T13:07:12.075Z,13.30
2019-02-07T13:09:52.368Z,10.97
2019-02-07T13:12:39.535Z,9.03
2019-02-07T13:15:32.546Z,6.57
2019-02-07T13:18:29.978Z,7.17
2019-02-07T13:21:16.671Z,7.53
2019-02-07T13:24:04.036Z,7.60
2019-02-07T13:26:51.749Z,7.30
2019-02-07T13:29:34.043Z,5.53
2019-02-07T13:32:42.420Z,9.07
2019-02-07T13:35:29.722Z,9.30
2019-02-07T13:38:12.075Z,10.63
2019-02-07T13:41:00.963Z,62.37
2019-02-07T13:43:48.420Z,7.33
2019-02-07T13:46:38.954Z,10.57
2019-02-07T13:49:33.198Z,16.27
2019-02-07T13:52:24.383Z,10.50
2019-02-07T13:55:30.923Z,8.10
2019-02-07T13:58:10.459Z,6.13
2019-02-07T14:01:08.229Z,9.40
2019-02-07T14:03:55.505Z,8.63
2019-02-07T14:07:02.323Z,16.87
2019-02-07T14:09:53.947Z,8.57
2019-02-07T14:12:41.488Z,16.60
2019-02-07T14:15:24.527Z,13.53
2019-02-07T14:18:07.094Z,5.13
2019-02-07T14:20:58.274Z,2.97
2019-02-07T14:23:55.728Z,4.50
2019-02-07T14:27:02.404Z,5.83
2019-02-07T14:29:51.413Z,5.33
2019-02-07T14:32:38.683Z,6.40
2019-02-07T14:35:34.986Z,2.87
2019-02-07T14:38:22.278Z,3.10
2019-02-07T14:41:00.445Z,3.73
2019-02-07T14:43:47.475Z,3.63
2019-02-07T14:46:35.783Z,4.97
2019-02-07T14:49:05.196Z,4.03
2019-02-07T14:51:34.732Z,4.23
2019-02-07T14:54:04.293Z,3.80
2019-02-07T14:56:34.327Z,4.70
2019-02-07T14:59:04.202Z,3.93
2019-02-07T15:01:33.566Z,4.40
2019-02-07T15:04:03.380Z,7.40
2019-02-07T15:06:32.783Z,12.50
2019-02-07T15:09:02.283Z,6.03
2019-02-07T15:11:32.030Z,5.80
2019-02-07T15:14:01.632Z,14.37
2019-02-07T15:16:31.073Z,5.87
2019-02-07T15:19:00.563Z,7.70
2019-02-07T15:21:30.045Z,7.07
2019-02-07T15:23:59.457Z,8.00
2019-02-07T15:26:29.153Z,8.50
2019-02-07T15:28:59.291Z,9.50
2019-02-07T15:31:29.007Z,9.77
2019-02-07T15:33:58.829Z,9.57
2019-02-07T15:36:28.267Z,10.10
2019-02-07T15:38:58.157Z,10.47
2019-02-07T15:41:28.055Z,22.17
2019-02-07T15:43:58.511Z,7.80
2019-02-07T15:46:28.256Z,7.23
2019-02-07T15:48:58.250Z,6.23
2019-02-07T15:51:27.890Z,4.67
2019-02-07T15:53:57.749Z,3.57
2019-02-07T15:56:30.247Z,2.63
2019-02-07T15:59:07.591Z,6.23
2019-02-07T16:01:44.918Z,2.67
2019-02-07T16:04:26.449Z,5.60
2019-02-07T16:06:56.104Z,2.40
2019-02-07T16:09:25.746Z,4.73
2019-02-07T16:11:55.534Z,5.50
2019-02-07T16:14:25.053Z,4.20
2019-02-07T16:16:54.742Z,3.20
2019-02-07T16:19:24.227Z,9.17
2019-02-07T16:21:54.071Z,4.47
2019-02-07T16:24:23.562Z,3.80
2019-02-07T16:26:53.160Z,4.87
2019-02-07T16:29:22.655Z,6.53
2019-02-07T16:31:52.218Z,6.33
2019-02-07T16:34:21.796Z,5.10
2019-02-07T16:36:51.467Z,4.67
2019-02-07T16:39:21.400Z,3.47
2019-02-07T16:41:51.149Z,3.93
2019-02-07T16:44:21.253Z,5.27
2019-02-07T16:46:54.326Z,5.23
2019-02-07T16:49:23.444Z,2.33
2019-02-07T16:51:53.358Z,5.43
2019-02-07T16:54:23.044Z,3.07
2019-02-07T16:56:53.304Z,3.53
2019-02-07T16:59:22.911Z,3.47
2019-02-07T17:01:52.651Z,4.17
2019-02-07T17:04:22.263Z,4.03
2019-02-07T17:06:51.717Z,3.47
2019-02-07T17:09:35.996Z,3.77
2019-02-07T17:12:06.227Z,4.87
2019-02-07T17:14:36.037Z,3.33
2019-02-07T17:17:05.734Z,3.97
2019-02-07T17:19:35.693Z,3.23
2019-02-07T17:22:05.656Z,5.23
2019-02-07T17:24:35.354Z,4.50
2019-02-07T17:27:05.717Z,4.97
2019-02-07T17:29:35.834Z,3.90
2019-02-07T17:32:06.265Z,4.20
2019-02-07T17:34:36.109Z,2.97
2019-02-07T17:37:05.926Z,3.03
2019-02-07T17:39:35.393Z,8.80
2019-02-07T17:42:05.683Z,3.73
2019-02-07T17:44:35.413Z,7.43
2019-02-07T17:47:05.125Z,4.53
2019-02-07T17:49:35.207Z,5.03
2019-02-07T17:52:04.902Z,3.67
2019-02-07T17:54:34.433Z,4.73
2019-02-07T17:57:04.513Z,3.73
2019-02-07T17:59:34.363Z,4.10
2019-02-07T18:02:05.806Z,4.13
2019-02-07T18:04:35.767Z,5.17
2019-02-07T18:07:05.881Z,7.90
2019-02-07T18:09:35.847Z,5.20
2019-02-07T18:12:05.947Z,6.67
2019-02-07T18:14:35.770Z,7.20
2019-02-07T18:17:05.394Z,8.03
2019-02-07T18:19:35.134Z,6.63
2019-02-07T18:22:05.009Z,9.37
2019-02-07T18:24:34.775Z,6.47
2019-02-07T18:27:04.672Z,8.37
2019-02-07T18:29:34.871Z,9.13
2019-02-07T18:32:04.924Z,11.00
2019-02-07T18:34:34.853Z,7.87
2019-02-07T18:37:04.477Z,9.10
2019-02-07T18:39:34.548Z,9.47
2019-02-07T18:42:04.172Z,7.20
2019-02-07T18:44:33.794Z,8.27
2019-02-07T18:47:03.682Z,8.63
2019-02-07T18:49:33.759Z,9.47
2019-02-07T18:52:03.700Z,13.07
2019-02-07T18:54:33.983Z,14.60
2019-02-07T18:57:03.975Z,17.33
2019-02-07T18:59:36.843Z,22.53
2019-02-07T19:02:06.803Z,26.70
2019-02-07T19:04:36.948Z,26.87
2019-02-07T19:07:07.157Z,31.17
2019-02-07T19:09:37.250Z,26.17
2019-02-07T19:12:06.924Z,30.03
2019-02-07T19:14:36.750Z,25.77
2019-02-07T19:17:06.595Z,29.67
2019-02-07T19:19:36.571Z,21.30
2019-02-07T19:22:06.728Z,21.27
2019-02-07T19:24:37.246Z,24.73
2019-02-07T19:27:07.021Z,17.53
2019-02-07T19:29:37.043Z,13.87
2019-02-07T19:32:07.289Z,15.07
2019-02-07T19:34:37.315Z,17.63
2019-02-07T19:37:07.137Z,16.17
2019-02-07T19:39:37.555Z,14.97
2019-02-07T19:42:07.622Z,14.47
2019-02-07T19:44:37.647Z,15.13
2019-02-07T19:47:07.791Z,16.97
2019-02-07T19:49:37.738Z,15.83
2019-02-07T19:52:08.666Z,14.53
2019-02-07T19:54:38.735Z,14.47
2019-02-07T19:57:08.957Z,15.83
2019-02-07T19:59:38.871Z,13.17
2019-02-07T20:02:08.529Z,13.03
2019-02-07T20:04:38.333Z,11.63
2019-02-07T20:07:08.516Z,13.98
2019-02-07T20:09:38.123Z,17.27
2019-02-07T20:12:08.079Z,15.47
2019-02-07T20:14:37.984Z,13.77
2019-02-07T20:17:07.688Z,13.67
2019-02-07T20:19:37.627Z,11.23
2019-02-07T20:22:07.581Z,10.93
2019-02-07T20:24:45.780Z,10.75
2019-02-07T20:27:09.146Z,10.88
2019-02-07T20:29:38.930Z,10.25
2019-02-07T20:32:08.628Z,8.83
2019-02-07T20:34:38.399Z,8.53
2019-02-07T20:37:08.097Z,8.83
2019-02-07T20:39:37.910Z,10.18
2019-02-07T20:42:07.792Z,8.30
2019-02-07T20:44:37.561Z,10.10
2019-02-07T20:47:07.365Z,10.32
2019-02-07T20:49:37.194Z,8.40
2019-02-07T20:52:07.295Z,7.67
2019-02-07T20:54:37.508Z,7.62
2019-02-07T20:57:07.137Z,14.98
2019-02-07T20:59:37.285Z,8.60
2019-02-07T21:02:06.992Z,8.85
2019-02-07T21:04:36.974Z,9.00
2019-02-07T21:07:06.727Z,9.50
2019-02-07T21:09:36.736Z,9.23
2019-02-07T21:12:06.691Z,8.18
2019-02-07T21:14:36.458Z,11.25
2019-02-07T21:17:06.203Z,9.13
2019-02-07T21:19:35.780Z,11.40
2019-02-07T21:22:05.928Z,14.83
2019-02-07T21:24:35.755Z,15.55
2019-02-07T21:27:05.390Z,26.55
2019-02-07T21:29:34.842Z,13.83
2019-02-07T21:32:04.838Z,13.05
2019-02-07T21:34:34.545Z,11.97
2019-02-07T21:37:04.113Z,13.98
2019-02-07T21:39:33.656Z,12.73
2019-02-07T21:42:03.746Z,12.95
2019-02-07T21:44:33.290Z,12.70
2019-02-07T21:47:02.727Z,9.58
2019-02-07T21:49:32.218Z,8.55
2019-02-07T21:52:01.743Z,10.55
2019-02-07T21:54:31.365Z,8.58
2019-02-07T21:57:00.855Z,9.15
2019-02-07T21:59:30.845Z,11.38
2019-02-07T22:02:00.545Z,9.18
2019-02-07T22:04:30.022Z,10.75
2019-02-07T22:06:59.557Z,10.20
2019-02-07T22:09:29.266Z,11.95
2019-02-07T22:11:58.805Z,11.40
2019-02-07T22:14:28.502Z,12.85
2019-02-07T22:16:57.981Z,18.17
2019-02-07T22:19:27.375Z,16.23
2019-02-07T22:21:57.028Z,14.98
2019-02-07T22:24:26.474Z,15.90
2019-02-07T22:26:56.016Z,13.30
2019-02-07T22:29:26.296Z,14.60
2019-02-07T22:31:55.897Z,12.60
2019-02-07T22:34:25.406Z,14.68
2019-02-07T22:36:54.914Z,14.00
2019-02-07T22:39:24.485Z,16.55
2019-02-07T22:41:54.055Z,13.38
2019-02-07T22:44:23.687Z,11.63
2019-02-07T22:46:53.191Z,12.25
2019-02-07T22:49:22.662Z,12.03
2019-02-07T22:51:52.092Z,18.50
2019-02-07T22:54:21.840Z,17.52
2019-02-07T22:56:51.229Z,17.35
2019-02-07T22:59:20.861Z,12.10
2019-02-07T23:01:55.802Z,14.40
2019-02-07T23:04:26.502Z,13.78
2019-02-07T23:06:55.833Z,19.12
2019-02-07T23:09:25.210Z,13.20
2019-02-07T23:11:55.331Z,13.03
2019-02-07T23:14:24.897Z,16.05
2019-02-07T23:16:54.253Z,12.55
2019-02-07T23:19:23.870Z,16.82
2019-02-07T23:21:53.284Z,18.50
2019-02-07T23:24:22.855Z,15.60
2019-02-07T23:26:52.501Z,19.85
2019-02-07T23:29:22.087Z,15.32
2019-02-07T23:31:51.578Z,15.08
2019-02-07T23:34:21.110Z,14.68
2019-02-07T23:36:50.652Z,19.37
2019-02-07T23:39:20.150Z,16.07
2019-02-07T23:41:49.907Z,17.02
2019-02-07T23:44:19.363Z,15.13
2019-02-07T23:46:48.713Z,15.32
2019-02-07T23:49:18.298Z,12.93
2019-02-07T23:51:47.634Z,18.42
2019-02-07T23:54:17.256Z,18.37
2019-02-07T23:56:46.838Z,15.72
2019-02-07T23:59:16.508Z,17.45
